sensor_id;sensor_type;location;lat;lon;timestamp;temperature;humidity
15426;DHT22;7812;50.072;7.036;2023-07-13T00:01:48;14.70;99.90
15426;DHT22;7812;50.072;7.036;2023-07-13T00:04:16;14.70;99.90
15426;DHT22;7812;50.072;7.036;2023-07-13T00:06:43;14.50;99.90
15426;DHT22;7812;50.072;7.036;2023-07-13T00:09:14;14.50;99.90
15426;DHT22;7812;50.072;7.036;2023-07-13T00:11:41;14.50;99.90
15426;DHT22;7812;50.072;7.036;2023-07-13T00:14:07;14.40;99.90
15426;DHT22;7812;50.072;7.036;2023-07-13T00:16:38;14.40;99.90
15426;DHT22;7812;50.072;7.036;2023-07-13T00:19:04;14.40;99.90
15426;DHT22;7812;50.072;7.036;2023-07-13T00:21:30;14.20;99.90
15426;DHT22;7812;50.072;7.036;2023-07-13T00:23:56;14.00;99.90
15426;DHT22;7812;50.072;7.036;2023-07-13T00:26:22;14.00;99.90
15426;DHT22;7812;50.072;7.036;2023-07-13T00:28:48;13.90;99.90
15426;DHT22;7812;50.072;7.036;2023-07-13T00:31:14;13.90;99.90
15426;DHT22;7812;50.072;7.036;2023-07-13T00:33:41;13.90;99.90
15426;DHT22;7812;50.072;7.036;2023-07-13T00:36:08;13.90;99.90
15426;DHT22;7812;50.072;7.036;2023-07-13T00:38:35;13.90;99.90
15426;DHT22;7812;50.072;7.036;2023-07-13T00:41:01;13.80;99.90
15426;DHT22;7812;50.072;7.036;2023-07-13T00:43:29;13.80;99.90
15426;DHT22;7812;50.072;7.036;2023-07-13T00:48:29;13.70;99.90
15426;DHT22;7812;50.072;7.036;2023-07-13T00:50:58;13.70;99.90
15426;DHT22;7812;50.072;7.036;2023-07-13T00:53:26;13.60;99.90
15426;DHT22;7812;50.072;7.036;2023-07-13T00:55:53;13.50;99.90
15426;DHT22;7812;50.072;7.036;2023-07-13T00:58:20;13.50;99.90
15426;DHT22;7812;50.072;7.036;2023-07-13T01:00:47;13.40;99.90
15426;DHT22;7812;50.072;7.036;2023-07-13T01:03:14;13.50;99.90
15426;DHT22;7812;50.072;7.036;2023-07-13T01:05:40;13.50;99.90
15426;DHT22;7812;50.072;7.036;2023-07-13T01:08:05;13.40;99.90
15426;DHT22;7812;50.072;7.036;2023-07-13T01:10:32;13.50;99.90
15426;DHT22;7812;50.072;7.036;2023-07-13T01:13:09;13.60;99.90
15426;DHT22;7812;50.072;7.036;2023-07-13T01:15:46;13.50;99.90
15426;DHT22;7812;50.072;7.036;2023-07-13T01:18:32;13.40;99.90
15426;DHT22;7812;50.072;7.036;2023-07-13T01:21:04;13.40;99.90
15426;DHT22;7812;50.072;7.036;2023-07-13T01:23:31;13.40;99.90
15426;DHT22;7812;50.072;7.036;2023-07-13T01:25:57;13.40;99.90
15426;DHT22;7812;50.072;7.036;2023-07-13T01:28:24;13.40;99.90
15426;DHT22;7812;50.072;7.036;2023-07-13T01:30:53;13.30;99.90
15426;DHT22;7812;50.072;7.036;2023-07-13T01:33:19;13.30;99.90
15426;DHT22;7812;50.072;7.036;2023-07-13T01:35:46;13.20;99.90
15426;DHT22;7812;50.072;7.036;2023-07-13T01:38:14;13.10;99.90
15426;DHT22;7812;50.072;7.036;2023-07-13T01:40:40;13.10;99.90
15426;DHT22;7812;50.072;7.036;2023-07-13T01:43:06;13.00;99.90
15426;DHT22;7812;50.072;7.036;2023-07-13T01:45:32;12.90;99.90
15426;DHT22;7812;50.072;7.036;2023-07-13T01:47:57;12.80;99.90
15426;DHT22;7812;50.072;7.036;2023-07-13T01:50:24;12.80;99.90
15426;DHT22;7812;50.072;7.036;2023-07-13T01:52:50;12.80;99.90
15426;DHT22;7812;50.072;7.036;2023-07-13T01:55:16;12.80;99.90
15426;DHT22;7812;50.072;7.036;2023-07-13T01:57:41;12.80;99.90
15426;DHT22;7812;50.072;7.036;2023-07-13T02:00:09;12.70;99.90
15426;DHT22;7812;50.072;7.036;2023-07-13T02:02:35;12.70;99.90
15426;DHT22;7812;50.072;7.036;2023-07-13T02:05:01;12.70;99.90
15426;DHT22;7812;50.072;7.036;2023-07-13T02:07:27;12.60;99.90
15426;DHT22;7812;50.072;7.036;2023-07-13T02:09:52;12.60;99.90
15426;DHT22;7812;50.072;7.036;2023-07-13T02:12:19;12.50;99.90
15426;DHT22;7812;50.072;7.036;2023-07-13T02:14:45;12.60;99.90
15426;DHT22;7812;50.072;7.036;2023-07-13T02:17:11;12.60;99.90
15426;DHT22;7812;50.072;7.036;2023-07-13T02:19:36;12.60;99.90
15426;DHT22;7812;50.072;7.036;2023-07-13T02:22:02;12.60;99.90
15426;DHT22;7812;50.072;7.036;2023-07-13T02:24:28;12.60;99.90
15426;DHT22;7812;50.072;7.036;2023-07-13T02:26:54;12.60;99.90
15426;DHT22;7812;50.072;7.036;2023-07-13T02:29:19;12.50;99.90
15426;DHT22;7812;50.072;7.036;2023-07-13T02:31:45;12.40;99.90
15426;DHT22;7812;50.072;7.036;2023-07-13T02:34:11;12.40;99.90
15426;DHT22;7812;50.072;7.036;2023-07-13T02:36:37;12.40;99.90
15426;DHT22;7812;50.072;7.036;2023-07-13T02:39:04;12.40;99.90
15426;DHT22;7812;50.072;7.036;2023-07-13T02:41:30;12.40;99.90
15426;DHT22;7812;50.072;7.036;2023-07-13T02:43:58;12.30;99.90
15426;DHT22;7812;50.072;7.036;2023-07-13T02:46:32;12.30;99.90
15426;DHT22;7812;50.072;7.036;2023-07-13T02:48:58;12.30;99.90
15426;DHT22;7812;50.072;7.036;2023-07-13T02:51:24;12.30;99.90
15426;DHT22;7812;50.072;7.036;2023-07-13T02:53:49;12.30;99.90
15426;DHT22;7812;50.072;7.036;2023-07-13T02:56:15;12.30;99.90
15426;DHT22;7812;50.072;7.036;2023-07-13T02:58:41;12.20;99.90
15426;DHT22;7812;50.072;7.036;2023-07-13T03:01:12;12.10;99.90
15426;DHT22;7812;50.072;7.036;2023-07-13T03:03:38;12.10;99.90
15426;DHT22;7812;50.072;7.036;2023-07-13T03:06:04;12.00;99.90
15426;DHT22;7812;50.072;7.036;2023-07-13T03:08:31;12.10;99.90
15426;DHT22;7812;50.072;7.036;2023-07-13T03:11:05;12.00;99.90
15426;DHT22;7812;50.072;7.036;2023-07-13T03:13:32;12.10;99.90
15426;DHT22;7812;50.072;7.036;2023-07-13T03:15:58;12.20;99.90
15426;DHT22;7812;50.072;7.036;2023-07-13T03:18:25;12.20;99.90
15426;DHT22;7812;50.072;7.036;2023-07-13T03:20:52;12.20;99.90
15426;DHT22;7812;50.072;7.036;2023-07-13T03:23:18;12.20;99.90
15426;DHT22;7812;50.072;7.036;2023-07-13T03:25:44;12.10;99.90
15426;DHT22;7812;50.072;7.036;2023-07-13T03:28:11;12.10;99.90
15426;DHT22;7812;50.072;7.036;2023-07-13T03:30:38;12.10;99.90
15426;DHT22;7812;50.072;7.036;2023-07-13T03:33:03;12.00;99.90
15426;DHT22;7812;50.072;7.036;2023-07-13T03:35:29;11.80;99.90
15426;DHT22;7812;50.072;7.036;2023-07-13T03:37:55;11.80;99.90
15426;DHT22;7812;50.072;7.036;2023-07-13T03:40:21;11.80;99.90
15426;DHT22;7812;50.072;7.036;2023-07-13T03:42:47;11.80;99.90
15426;DHT22;7812;50.072;7.036;2023-07-13T03:45:12;11.70;99.90
15426;DHT22;7812;50.072;7.036;2023-07-13T03:47:38;11.60;99.90
15426;DHT22;7812;50.072;7.036;2023-07-13T03:50:04;11.50;99.90
15426;DHT22;7812;50.072;7.036;2023-07-13T03:52:30;11.50;99.90
15426;DHT22;7812;50.072;7.036;2023-07-13T03:54:56;11.50;99.90
15426;DHT22;7812;50.072;7.036;2023-07-13T03:57:21;11.50;99.90
15426;DHT22;7812;50.072;7.036;2023-07-13T03:59:48;11.60;99.90
15426;DHT22;7812;50.072;7.036;2023-07-13T04:02:13;11.70;99.90
15426;DHT22;7812;50.072;7.036;2023-07-13T04:04:39;11.80;99.90
15426;DHT22;7812;50.072;7.036;2023-07-13T04:07:06;11.70;99.90
15426;DHT22;7812;50.072;7.036;2023-07-13T04:09:34;11.70;99.90
15426;DHT22;7812;50.072;7.036;2023-07-13T04:11:59;11.60;99.90
15426;DHT22;7812;50.072;7.036;2023-07-13T04:14:25;11.80;99.90
15426;DHT22;7812;50.072;7.036;2023-07-13T04:16:51;11.80;99.90
15426;DHT22;7812;50.072;7.036;2023-07-13T04:19:17;11.80;99.90
15426;DHT22;7812;50.072;7.036;2023-07-13T04:21:42;11.80;99.90
15426;DHT22;7812;50.072;7.036;2023-07-13T04:24:08;11.90;99.90
15426;DHT22;7812;50.072;7.036;2023-07-13T04:26:34;11.80;99.90
15426;DHT22;7812;50.072;7.036;2023-07-13T04:29:04;11.80;99.90
15426;DHT22;7812;50.072;7.036;2023-07-13T04:31:31;11.80;99.90
15426;DHT22;7812;50.072;7.036;2023-07-13T04:33:56;11.90;99.90
15426;DHT22;7812;50.072;7.036;2023-07-13T04:36:22;11.80;99.90
15426;DHT22;7812;50.072;7.036;2023-07-13T04:38:48;11.70;99.90
15426;DHT22;7812;50.072;7.036;2023-07-13T04:41:14;11.30;99.90
15426;DHT22;7812;50.072;7.036;2023-07-13T04:43:41;11.40;99.90
15426;DHT22;7812;50.072;7.036;2023-07-13T04:46:09;11.70;99.90
15426;DHT22;7812;50.072;7.036;2023-07-13T04:48:35;11.80;99.90
15426;DHT22;7812;50.072;7.036;2023-07-13T04:51:01;11.90;99.90
15426;DHT22;7812;50.072;7.036;2023-07-13T04:53:27;11.90;99.90
15426;DHT22;7812;50.072;7.036;2023-07-13T04:55:53;12.10;99.90
15426;DHT22;7812;50.072;7.036;2023-07-13T04:58:19;12.10;99.90
15426;DHT22;7812;50.072;7.036;2023-07-13T05:00:45;12.20;99.90
15426;DHT22;7812;50.072;7.036;2023-07-13T05:03:10;12.20;99.90
15426;DHT22;7812;50.072;7.036;2023-07-13T05:05:36;12.30;99.90
15426;DHT22;7812;50.072;7.036;2023-07-13T05:08:02;12.40;99.90
15426;DHT22;7812;50.072;7.036;2023-07-13T05:10:28;12.50;99.90
15426;DHT22;7812;50.072;7.036;2023-07-13T05:12:53;12.70;99.90
15426;DHT22;7812;50.072;7.036;2023-07-13T05:15:21;12.90;99.90
15426;DHT22;7812;50.072;7.036;2023-07-13T05:17:48;13.00;99.90
15426;DHT22;7812;50.072;7.036;2023-07-13T05:20:14;13.20;99.90
15426;DHT22;7812;50.072;7.036;2023-07-13T05:22:40;13.40;99.90
15426;DHT22;7812;50.072;7.036;2023-07-13T05:25:07;13.00;99.90
15426;DHT22;7812;50.072;7.036;2023-07-13T05:27:33;13.00;99.90
15426;DHT22;7812;50.072;7.036;2023-07-13T05:30:00;13.30;99.90
15426;DHT22;7812;50.072;7.036;2023-07-13T05:32:25;13.80;99.90
15426;DHT22;7812;50.072;7.036;2023-07-13T05:34:51;14.10;99.90
15426;DHT22;7812;50.072;7.036;2023-07-13T05:37:17;14.40;99.90
15426;DHT22;7812;50.072;7.036;2023-07-13T05:39:43;14.70;99.90
15426;DHT22;7812;50.072;7.036;2023-07-13T05:42:09;15.00;99.90
15426;DHT22;7812;50.072;7.036;2023-07-13T05:44:35;15.30;99.90
15426;DHT22;7812;50.072;7.036;2023-07-13T05:47:00;15.60;99.90
15426;DHT22;7812;50.072;7.036;2023-07-13T05:49:26;15.90;99.90
15426;DHT22;7812;50.072;7.036;2023-07-13T05:51:52;16.00;99.90
15426;DHT22;7812;50.072;7.036;2023-07-13T05:54:17;16.30;99.90
15426;DHT22;7812;50.072;7.036;2023-07-13T05:56:43;16.50;99.90
15426;DHT22;7812;50.072;7.036;2023-07-13T05:59:09;16.40;99.90
15426;DHT22;7812;50.072;7.036;2023-07-13T06:01:34;16.40;99.90
15426;DHT22;7812;50.072;7.036;2023-07-13T06:04:00;17.00;99.90
15426;DHT22;7812;50.072;7.036;2023-07-13T06:06:26;17.60;99.90
15426;DHT22;7812;50.072;7.036;2023-07-13T06:08:51;17.40;99.90
15426;DHT22;7812;50.072;7.036;2023-07-13T06:11:20;17.60;99.90
15426;DHT22;7812;50.072;7.036;2023-07-13T06:13:46;17.90;99.90
15426;DHT22;7812;50.072;7.036;2023-07-13T06:16:13;17.90;99.90
15426;DHT22;7812;50.072;7.036;2023-07-13T06:18:39;18.60;99.90
15426;DHT22;7812;50.072;7.036;2023-07-13T06:21:10;18.90;99.90
15426;DHT22;7812;50.072;7.036;2023-07-13T06:23:36;19.60;99.90
15426;DHT22;7812;50.072;7.036;2023-07-13T06:26:03;20.10;99.90
15426;DHT22;7812;50.072;7.036;2023-07-13T06:28:30;20.60;99.90
15426;DHT22;7812;50.072;7.036;2023-07-13T06:30:57;20.40;99.90
15426;DHT22;7812;50.072;7.036;2023-07-13T06:33:23;20.60;99.90
15426;DHT22;7812;50.072;7.036;2023-07-13T06:35:49;21.20;99.90
15426;DHT22;7812;50.072;7.036;2023-07-13T06:38:15;21.20;99.90
15426;DHT22;7812;50.072;7.036;2023-07-13T06:40:41;22.00;99.90
15426;DHT22;7812;50.072;7.036;2023-07-13T06:43:07;22.20;99.90
15426;DHT22;7812;50.072;7.036;2023-07-13T06:45:44;22.10;99.90
15426;DHT22;7812;50.072;7.036;2023-07-13T06:48:15;22.20;99.90
15426;DHT22;7812;50.072;7.036;2023-07-13T06:50:42;22.20;99.90
15426;DHT22;7812;50.072;7.036;2023-07-13T06:53:08;21.60;99.90
15426;DHT22;7812;50.072;7.036;2023-07-13T06:55:34;21.90;99.90
15426;DHT22;7812;50.072;7.036;2023-07-13T06:58:00;22.00;99.90
15426;DHT22;7812;50.072;7.036;2023-07-13T07:00:26;22.20;99.90
15426;DHT22;7812;50.072;7.036;2023-07-13T07:02:51;22.30;99.90
15426;DHT22;7812;50.072;7.036;2023-07-13T07:05:17;22.10;99.90
15426;DHT22;7812;50.072;7.036;2023-07-13T07:07:43;22.40;99.90
15426;DHT22;7812;50.072;7.036;2023-07-13T07:10:09;22.80;99.90
15426;DHT22;7812;50.072;7.036;2023-07-13T07:12:34;23.10;99.90
15426;DHT22;7812;50.072;7.036;2023-07-13T07:15:00;22.70;99.90
15426;DHT22;7812;50.072;7.036;2023-07-13T07:17:25;22.10;99.90
15426;DHT22;7812;50.072;7.036;2023-07-13T07:19:52;21.80;99.90
15426;DHT22;7812;50.072;7.036;2023-07-13T07:22:20;21.70;99.90
15426;DHT22;7812;50.072;7.036;2023-07-13T07:24:46;22.40;99.90
15426;DHT22;7812;50.072;7.036;2023-07-13T07:27:11;23.10;99.90
15426;DHT22;7812;50.072;7.036;2023-07-13T07:29:37;23.10;99.90
15426;DHT22;7812;50.072;7.036;2023-07-13T07:32:03;22.90;99.90
15426;DHT22;7812;50.072;7.036;2023-07-13T07:34:30;22.10;99.90
15426;DHT22;7812;50.072;7.036;2023-07-13T07:36:59;22.30;99.90
15426;DHT22;7812;50.072;7.036;2023-07-13T07:39:26;22.60;99.90
15426;DHT22;7812;50.072;7.036;2023-07-13T07:41:52;22.40;99.90
15426;DHT22;7812;50.072;7.036;2023-07-13T07:44:17;23.10;99.90
15426;DHT22;7812;50.072;7.036;2023-07-13T07:46:43;23.00;99.90
15426;DHT22;7812;50.072;7.036;2023-07-13T07:49:08;22.80;99.90
15426;DHT22;7812;50.072;7.036;2023-07-13T07:51:34;23.30;99.90
15426;DHT22;7812;50.072;7.036;2023-07-13T07:54:00;23.90;99.90
15426;DHT22;7812;50.072;7.036;2023-07-13T07:56:26;23.50;99.90
15426;DHT22;7812;50.072;7.036;2023-07-13T07:58:51;23.70;99.90
15426;DHT22;7812;50.072;7.036;2023-07-13T08:01:17;24.20;99.90
15426;DHT22;7812;50.072;7.036;2023-07-13T08:03:43;23.20;99.90
15426;DHT22;7812;50.072;7.036;2023-07-13T08:06:08;23.10;99.90
15426;DHT22;7812;50.072;7.036;2023-07-13T08:08:35;22.40;99.90
15426;DHT22;7812;50.072;7.036;2023-07-13T08:11:05;22.20;99.90
15426;DHT22;7812;50.072;7.036;2023-07-13T08:13:31;22.30;99.90
15426;DHT22;7812;50.072;7.036;2023-07-13T08:15:56;21.90;99.90
15426;DHT22;7812;50.072;7.036;2023-07-13T08:18:22;22.50;99.90
15426;DHT22;7812;50.072;7.036;2023-07-13T08:20:48;22.80;99.90
15426;DHT22;7812;50.072;7.036;2023-07-13T08:23:13;23.50;99.90
15426;DHT22;7812;50.072;7.036;2023-07-13T08:25:39;24.00;99.90
15426;DHT22;7812;50.072;7.036;2023-07-13T08:28:05;23.40;99.90
15426;DHT22;7812;50.072;7.036;2023-07-13T08:30:30;23.40;99.90
15426;DHT22;7812;50.072;7.036;2023-07-13T08:32:56;23.60;99.90
15426;DHT22;7812;50.072;7.036;2023-07-13T08:35:22;23.80;99.90
15426;DHT22;7812;50.072;7.036;2023-07-13T08:37:47;24.20;99.90
15426;DHT22;7812;50.072;7.036;2023-07-13T08:40:13;24.40;99.90
15426;DHT22;7812;50.072;7.036;2023-07-13T08:42:44;23.90;99.90
15426;DHT22;7812;50.072;7.036;2023-07-13T08:50:52;23.20;99.90
15426;DHT22;7812;50.072;7.036;2023-07-13T08:53:18;23.50;99.90
15426;DHT22;7812;50.072;7.036;2023-07-13T08:55:45;23.90;99.90
15426;DHT22;7812;50.072;7.036;2023-07-13T08:58:11;25.10;99.90
15426;DHT22;7812;50.072;7.036;2023-07-13T09:00:49;25.30;99.90
15426;DHT22;7812;50.072;7.036;2023-07-13T09:03:30;26.70;99.90
15426;DHT22;7812;50.072;7.036;2023-07-13T09:05:58;26.40;99.90
15426;DHT22;7812;50.072;7.036;2023-07-13T09:16:55;27.90;99.90
15426;DHT22;7812;50.072;7.036;2023-07-13T09:19:26;27.40;99.90
15426;DHT22;7812;50.072;7.036;2023-07-13T09:21:53;25.40;99.90
15426;DHT22;7812;50.072;7.036;2023-07-13T09:24:37;23.80;99.90
15426;DHT22;7812;50.072;7.036;2023-07-13T09:27:19;23.80;99.90
15426;DHT22;7812;50.072;7.036;2023-07-13T09:29:50;24.20;99.90
15426;DHT22;7812;50.072;7.036;2023-07-13T09:32:18;24.60;99.90
15426;DHT22;7812;50.072;7.036;2023-07-13T09:34:53;25.90;99.90
15426;DHT22;7812;50.072;7.036;2023-07-13T09:37:22;25.30;99.90
15426;DHT22;7812;50.072;7.036;2023-07-13T09:39:49;25.80;99.90
15426;DHT22;7812;50.072;7.036;2023-07-13T09:47:26;26.30;99.90
15426;DHT22;7812;50.072;7.036;2023-07-13T09:52:24;26.30;99.90
15426;DHT22;7812;50.072;7.036;2023-07-13T09:54:51;26.10;99.90
15426;DHT22;7812;50.072;7.036;2023-07-13T09:57:23;25.90;99.90
15426;DHT22;7812;50.072;7.036;2023-07-13T09:59:51;26.80;99.90
15426;DHT22;7812;50.072;7.036;2023-07-13T10:02:28;27.10;99.90
15426;DHT22;7812;50.072;7.036;2023-07-13T10:07:25;28.10;99.90
15426;DHT22;7812;50.072;7.036;2023-07-13T10:09:54;26.60;99.90
15426;DHT22;7812;50.072;7.036;2023-07-13T10:12:21;26.90;99.90
15426;DHT22;7812;50.072;7.036;2023-07-13T10:14:50;27.40;99.90
15426;DHT22;7812;50.072;7.036;2023-07-13T10:17:19;26.50;99.90
15426;DHT22;7812;50.072;7.036;2023-07-13T10:19:47;25.40;99.90
15426;DHT22;7812;50.072;7.036;2023-07-13T10:22:22;25.40;99.90
15426;DHT22;7812;50.072;7.036;2023-07-13T10:24:49;25.80;99.90
15426;DHT22;7812;50.072;7.036;2023-07-13T10:27:19;24.50;99.90
15426;DHT22;7812;50.072;7.036;2023-07-13T10:32:43;24.00;99.90
15426;DHT22;7812;50.072;7.036;2023-07-13T10:35:12;24.90;99.90
15426;DHT22;7812;50.072;7.036;2023-07-13T10:43:28;25.60;99.90
15426;DHT22;7812;50.072;7.036;2023-07-13T10:45:54;25.90;99.90
15426;DHT22;7812;50.072;7.036;2023-07-13T10:48:23;25.60;99.90
15426;DHT22;7812;50.072;7.036;2023-07-13T10:50:51;25.10;99.90
15426;DHT22;7812;50.072;7.036;2023-07-13T10:53:22;25.10;99.90
15426;DHT22;7812;50.072;7.036;2023-07-13T10:58:23;25.70;99.90
15426;DHT22;7812;50.072;7.036;2023-07-13T11:03:29;24.20;99.90
15426;DHT22;7812;50.072;7.036;2023-07-13T11:18:50;22.60;99.90
15426;DHT22;7812;50.072;7.036;2023-07-13T11:21:35;22.50;99.90
15426;DHT22;7812;50.072;7.036;2023-07-13T11:24:18;22.60;99.90
15426;DHT22;7812;50.072;7.036;2023-07-13T11:26:51;22.60;99.90
15426;DHT22;7812;50.072;7.036;2023-07-13T11:31:50;23.00;99.90
15426;DHT22;7812;50.072;7.036;2023-07-13T11:34:21;22.80;99.90
15426;DHT22;7812;50.072;7.036;2023-07-13T11:36:49;22.70;99.90
15426;DHT22;7812;50.072;7.036;2023-07-13T11:41:57;22.40;99.90
15426;DHT22;7812;50.072;7.036;2023-07-13T11:44:25;22.30;99.90
15426;DHT22;7812;50.072;7.036;2023-07-13T11:46:56;22.30;99.90
15426;DHT22;7812;50.072;7.036;2023-07-13T11:49:24;22.30;99.90
15426;DHT22;7812;50.072;7.036;2023-07-13T11:51:52;22.40;99.90
15426;DHT22;7812;50.072;7.036;2023-07-13T11:54:30;22.60;99.90
15426;DHT22;7812;50.072;7.036;2023-07-13T11:57:20;22.50;99.90
15426;DHT22;7812;50.072;7.036;2023-07-13T11:59:49;22.30;99.90
15426;DHT22;7812;50.072;7.036;2023-07-13T12:02:21;22.90;99.90
15426;DHT22;7812;50.072;7.036;2023-07-13T12:04:51;23.20;99.90
15426;DHT22;7812;50.072;7.036;2023-07-13T12:07:18;23.30;99.90
15426;DHT22;7812;50.072;7.036;2023-07-13T12:09:45;22.80;99.90
15426;DHT22;7812;50.072;7.036;2023-07-13T12:12:17;22.60;99.90
15426;DHT22;7812;50.072;7.036;2023-07-13T12:14:44;22.50;99.90
15426;DHT22;7812;50.072;7.036;2023-07-13T12:17:20;22.40;99.90
15426;DHT22;7812;50.072;7.036;2023-07-13T12:19:48;22.50;99.90
15426;DHT22;7812;50.072;7.036;2023-07-13T12:22:15;22.70;99.90
15426;DHT22;7812;50.072;7.036;2023-07-13T12:24:42;22.90;99.90
15426;DHT22;7812;50.072;7.036;2023-07-13T12:27:24;23.00;99.90
15426;DHT22;7812;50.072;7.036;2023-07-13T12:29:52;23.40;99.90
15426;DHT22;7812;50.072;7.036;2023-07-13T12:32:19;23.60;99.90
15426;DHT22;7812;50.072;7.036;2023-07-13T12:35:15;23.90;99.90
15426;DHT22;7812;50.072;7.036;2023-07-13T12:37:45;23.70;99.90
15426;DHT22;7812;50.072;7.036;2023-07-13T12:40:19;23.50;99.90
15426;DHT22;7812;50.072;7.036;2023-07-13T12:42:47;23.20;99.90
15426;DHT22;7812;50.072;7.036;2023-07-13T12:47:43;22.90;99.90
15426;DHT22;7812;50.072;7.036;2023-07-13T12:50:20;22.80;99.90
15426;DHT22;7812;50.072;7.036;2023-07-13T12:52:51;22.70;99.90
15426;DHT22;7812;50.072;7.036;2023-07-13T12:55:19;22.80;99.90
15426;DHT22;7812;50.072;7.036;2023-07-13T12:57:53;22.90;99.90
15426;DHT22;7812;50.072;7.036;2023-07-13T13:02:44;22.80;99.90
15426;DHT22;7812;50.072;7.036;2023-07-13T13:05:13;22.60;99.90
15426;DHT22;7812;50.072;7.036;2023-07-13T13:07:39;22.70;99.90
15426;DHT22;7812;50.072;7.036;2023-07-13T13:10:12;22.60;99.90
15426;DHT22;7812;50.072;7.036;2023-07-13T13:12:38;22.50;99.90
15426;DHT22;7812;50.072;7.036;2023-07-13T13:15:04;22.60;99.90
15426;DHT22;7812;50.072;7.036;2023-07-13T13:17:32;22.50;99.90
15426;DHT22;7812;50.072;7.036;2023-07-13T13:19:59;22.50;99.90
15426;DHT22;7812;50.072;7.036;2023-07-13T13:22:24;22.40;99.90
15426;DHT22;7812;50.072;7.036;2023-07-13T13:24:50;22.30;99.90
15426;DHT22;7812;50.072;7.036;2023-07-13T13:27:22;22.40;99.90
15426;DHT22;7812;50.072;7.036;2023-07-13T13:29:50;22.50;99.90
15426;DHT22;7812;50.072;7.036;2023-07-13T13:32:19;22.50;99.90
15426;DHT22;7812;50.072;7.036;2023-07-13T13:34:45;22.70;99.90
15426;DHT22;7812;50.072;7.036;2023-07-13T13:37:20;22.60;99.90
15426;DHT22;7812;50.072;7.036;2023-07-13T13:39:46;22.80;99.90
15426;DHT22;7812;50.072;7.036;2023-07-13T13:42:12;22.90;99.90
15426;DHT22;7812;50.072;7.036;2023-07-13T13:44:38;22.90;99.90
15426;DHT22;7812;50.072;7.036;2023-07-13T13:47:33;23.50;99.90
15426;DHT22;7812;50.072;7.036;2023-07-13T13:49:58;24.00;99.90
15426;DHT22;7812;50.072;7.036;2023-07-13T13:52:25;24.20;99.90
15426;DHT22;7812;50.072;7.036;2023-07-13T13:54:51;24.20;99.90
15426;DHT22;7812;50.072;7.036;2023-07-13T13:57:22;24.10;99.90
15426;DHT22;7812;50.072;7.036;2023-07-13T13:59:49;24.20;99.90
15426;DHT22;7812;50.072;7.036;2023-07-13T14:02:27;24.20;99.90
15426;DHT22;7812;50.072;7.036;2023-07-13T14:04:57;24.10;99.90
15426;DHT22;7812;50.072;7.036;2023-07-13T14:07:23;23.80;99.90
15426;DHT22;7812;50.072;7.036;2023-07-13T14:09:49;23.70;99.90
15426;DHT22;7812;50.072;7.036;2023-07-13T14:12:14;23.80;99.90
15426;DHT22;7812;50.072;7.036;2023-07-13T14:14:40;23.70;99.90
15426;DHT22;7812;50.072;7.036;2023-07-13T14:17:25;23.90;99.90
15426;DHT22;7812;50.072;7.036;2023-07-13T14:19:52;24.20;99.90
15426;DHT22;7812;50.072;7.036;2023-07-13T14:22:23;24.40;99.90
15426;DHT22;7812;50.072;7.036;2023-07-13T14:24:51;24.30;99.90
15426;DHT22;7812;50.072;7.036;2023-07-13T14:27:24;24.40;99.90
15426;DHT22;7812;50.072;7.036;2023-07-13T14:29:50;24.00;99.90
15426;DHT22;7812;50.072;7.036;2023-07-13T14:32:16;23.70;99.90
15426;DHT22;7812;50.072;7.036;2023-07-13T14:34:42;23.70;99.90
15426;DHT22;7812;50.072;7.036;2023-07-13T14:37:13;23.80;99.90
15426;DHT22;7812;50.072;7.036;2023-07-13T14:39:40;23.60;99.90
15426;DHT22;7812;50.072;7.036;2023-07-13T14:42:08;23.60;99.90
15426;DHT22;7812;50.072;7.036;2023-07-13T14:44:35;23.70;99.90
15426;DHT22;7812;50.072;7.036;2023-07-13T14:47:03;23.80;99.90
15426;DHT22;7812;50.072;7.036;2023-07-13T14:52:23;24.00;99.90
15426;DHT22;7812;50.072;7.036;2023-07-13T14:54:49;24.00;99.90
15426;DHT22;7812;50.072;7.036;2023-07-13T14:57:17;24.30;99.90
15426;DHT22;7812;50.072;7.036;2023-07-13T14:59:44;24.20;99.90
15426;DHT22;7812;50.072;7.036;2023-07-13T15:02:30;24.10;99.90
15426;DHT22;7812;50.072;7.036;2023-07-13T15:04:57;24.00;99.90
15426;DHT22;7812;50.072;7.036;2023-07-13T15:07:23;24.10;99.90
15426;DHT22;7812;50.072;7.036;2023-07-13T15:09:50;23.90;99.90
15426;DHT22;7812;50.072;7.036;2023-07-13T15:12:18;23.70;99.90
15426;DHT22;7812;50.072;7.036;2023-07-13T15:14:45;23.80;99.90
15426;DHT22;7812;50.072;7.036;2023-07-13T15:17:35;23.80;99.90
15426;DHT22;7812;50.072;7.036;2023-07-13T15:20:05;23.80;99.90
15426;DHT22;7812;50.072;7.036;2023-07-13T15:22:33;23.60;99.90
15426;DHT22;7812;50.072;7.036;2023-07-13T15:24:58;23.50;99.90
15426;DHT22;7812;50.072;7.036;2023-07-13T15:27:25;23.70;99.90
15426;DHT22;7812;50.072;7.036;2023-07-13T15:29:52;23.70;99.90
15426;DHT22;7812;50.072;7.036;2023-07-13T15:32:17;24.10;99.90
15426;DHT22;7812;50.072;7.036;2023-07-13T15:34:45;24.10;99.90
15426;DHT22;7812;50.072;7.036;2023-07-13T15:37:15;24.00;99.90
15426;DHT22;7812;50.072;7.036;2023-07-13T15:39:41;23.90;99.90
15426;DHT22;7812;50.072;7.036;2023-07-13T15:42:18;23.70;99.90
15426;DHT22;7812;50.072;7.036;2023-07-13T15:44:45;23.70;99.90
15426;DHT22;7812;50.072;7.036;2023-07-13T15:47:14;23.40;99.90
15426;DHT22;7812;50.072;7.036;2023-07-13T15:49:41;23.60;99.90
15426;DHT22;7812;50.072;7.036;2023-07-13T15:52:22;23.60;99.90
15426;DHT22;7812;50.072;7.036;2023-07-13T15:54:48;23.50;99.90
15426;DHT22;7812;50.072;7.036;2023-07-13T15:57:14;23.60;99.90
15426;DHT22;7812;50.072;7.036;2023-07-13T15:59:41;23.70;99.90
15426;DHT22;7812;50.072;7.036;2023-07-13T16:02:20;23.80;99.90
15426;DHT22;7812;50.072;7.036;2023-07-13T16:04:48;23.80;99.90
15426;DHT22;7812;50.072;7.036;2023-07-13T16:07:15;23.70;99.90
15426;DHT22;7812;50.072;7.036;2023-07-13T16:09:45;23.60;99.90
15426;DHT22;7812;50.072;7.036;2023-07-13T16:12:12;23.60;99.90
15426;DHT22;7812;50.072;7.036;2023-07-13T16:14:39;23.70;99.90
15426;DHT22;7812;50.072;7.036;2023-07-13T16:17:05;23.40;99.90
15426;DHT22;7812;50.072;7.036;2023-07-13T16:19:32;23.30;99.90
15426;DHT22;7812;50.072;7.036;2023-07-13T16:21:59;23.40;99.90
15426;DHT22;7812;50.072;7.036;2023-07-13T16:24:26;23.40;99.90
15426;DHT22;7812;50.072;7.036;2023-07-13T16:26:52;23.20;99.90
15426;DHT22;7812;50.072;7.036;2023-07-13T16:29:24;23.10;99.90
15426;DHT22;7812;50.072;7.036;2023-07-13T16:32:04;23.00;99.90
15426;DHT22;7812;50.072;7.036;2023-07-13T16:34:35;23.00;99.90
15426;DHT22;7812;50.072;7.036;2023-07-13T16:39:51;22.90;99.90
15426;DHT22;7812;50.072;7.036;2023-07-13T16:42:21;22.90;99.90
15426;DHT22;7812;50.072;7.036;2023-07-13T16:44:46;23.00;99.90
15426;DHT22;7812;50.072;7.036;2023-07-13T16:47:14;23.10;99.90
15426;DHT22;7812;50.072;7.036;2023-07-13T16:49:41;23.10;99.90
15426;DHT22;7812;50.072;7.036;2023-07-13T16:52:11;23.10;99.90
15426;DHT22;7812;50.072;7.036;2023-07-13T16:54:38;23.10;99.90
15426;DHT22;7812;50.072;7.036;2023-07-13T16:57:32;23.10;99.90
15426;DHT22;7812;50.072;7.036;2023-07-13T16:59:58;23.10;99.90